createdAt,value
2022-08-08T00:00:57.727Z,18.70
2022-08-08T00:02:33.564Z,18.70
2022-08-08T00:05:09.878Z,18.60
2022-08-08T00:07:44.922Z,18.60
2022-08-08T00:10:18.217Z,18.50
2022-08-08T00:13:04.877Z,18.60
2022-08-08T00:15:56.168Z,18.50
2022-08-08T00:18:31.276Z,18.50
2022-08-08T00:21:05.304Z,18.40
2022-08-08T00:23:47.651Z,18.40
2022-08-08T00:26:29.042Z,18.30
2022-08-08T00:29:08.285Z,18.20
2022-08-08T00:32:21.006Z,18.20
2022-08-08T00:35:04.653Z,18.20
2022-08-08T00:37:48.345Z,18.20
2022-08-08T00:41:09.360Z,18.20
2022-08-08T00:43:59.266Z,18.10
2022-08-08T00:46:59.994Z,18.10
2022-08-08T00:50:04.021Z,18.10
2022-08-08T00:52:48.586Z,18.10
2022-08-08T00:55:59.097Z,18.00
2022-08-08T00:58:59.116Z,18.10
2022-08-08T01:01:38.452Z,18.00
2022-08-08T01:04:52.327Z,18.00
2022-08-08T01:07:58.112Z,18.00
2022-08-08T01:11:27.887Z,18.00
2022-08-08T01:14:53.215Z,18.00
2022-08-08T01:18:05.839Z,18.00
2022-08-08T01:21:08.325Z,18.00
2022-08-08T01:24:30.143Z,17.90
2022-08-08T01:27:44.170Z,17.90
2022-08-08T01:30:53.656Z,17.90
2022-08-08T01:34:00.620Z,17.90
2022-08-08T01:37:02.460Z,17.90
2022-08-08T01:40:05.979Z,17.90
2022-08-08T01:42:51.216Z,17.90
2022-08-08T01:45:54.429Z,17.70
2022-08-08T01:48:46.241Z,17.70
2022-08-08T01:52:41.203Z,17.60
2022-08-08T01:55:45.244Z,17.50
2022-08-08T01:58:11.707Z,17.50
2022-08-08T02:00:48.501Z,17.40
2022-08-08T02:03:55.896Z,17.30
2022-08-08T02:06:36.593Z,17.30
2022-08-08T02:10:02.478Z,17.20
2022-08-08T02:12:19.572Z,17.20
2022-08-08T02:14:58.614Z,17.20
2022-08-08T02:17:43.147Z,17.20
2022-08-08T02:20:59.942Z,17.10
2022-08-08T02:23:31.622Z,17.10
2022-08-08T02:26:10.139Z,17.10
2022-08-08T02:28:52.441Z,17.00
2022-08-08T02:31:59.121Z,17.00
2022-08-08T02:35:10.633Z,16.90
2022-08-08T02:38:10.016Z,16.80
2022-08-08T02:40:50.590Z,16.80
2022-08-08T02:44:39.288Z,16.80
2022-08-08T02:46:53.938Z,16.70
2022-08-08T02:50:01.211Z,16.60
2022-08-08T02:52:51.064Z,16.60
2022-08-08T02:55:47.851Z,16.60
2022-08-08T02:59:25.991Z,16.60
2022-08-08T03:02:37.468Z,16.60
2022-08-08T03:05:32.847Z,16.60
2022-08-08T03:08:56.553Z,16.60
2022-08-08T03:12:02.615Z,16.50
2022-08-08T03:16:01.025Z,16.50
2022-08-08T03:17:52.274Z,16.40
2022-08-08T03:20:52.060Z,16.40
2022-08-08T03:23:56.220Z,16.40
2022-08-08T03:26:32.755Z,16.30
2022-08-08T03:29:20.829Z,16.30
2022-08-08T03:32:29.247Z,16.20
2022-08-08T03:35:00.081Z,16.20
2022-08-08T03:38:52.996Z,16.20
2022-08-08T03:40:29.328Z,16.20
2022-08-08T03:43:18.162Z,16.20
2022-08-08T03:46:05.321Z,16.10
2022-08-08T03:49:26.522Z,16.10
2022-08-08T03:51:50.753Z,16.00
2022-08-08T03:54:41.399Z,16.00
2022-08-08T03:58:33.246Z,16.00
2022-08-08T04:00:11.300Z,15.90
2022-08-08T04:03:00.704Z,15.90
2022-08-08T04:05:32.256Z,15.80
2022-08-08T04:08:09.690Z,15.80
2022-08-08T04:10:38.779Z,15.80
2022-08-08T04:13:18.153Z,15.80
2022-08-08T04:16:04.157Z,15.80
2022-08-08T04:18:44.832Z,15.80
2022-08-08T04:21:23.394Z,15.70
2022-08-08T04:24:12.165Z,15.60
2022-08-08T04:26:57.169Z,15.60
2022-08-08T04:29:36.739Z,15.50
2022-08-08T04:32:10.553Z,15.50
2022-08-08T04:34:55.365Z,15.50
2022-08-08T04:37:32.469Z,15.50
2022-08-08T04:40:07.880Z,15.50
2022-08-08T04:42:57.295Z,15.40
2022-08-08T04:45:41.024Z,15.40
2022-08-08T04:48:09.705Z,15.40
2022-08-08T04:50:44.500Z,15.30
2022-08-08T04:54:36.380Z,15.40
2022-08-08T04:56:07.340Z,15.30
2022-08-08T04:58:38.167Z,15.30
2022-08-08T05:01:10.990Z,15.30
2022-08-08T05:04:11.124Z,15.30
2022-08-08T05:06:39.117Z,15.30
2022-08-08T05:09:08.978Z,15.30
2022-08-08T05:11:41.382Z,15.30
2022-08-08T05:14:14.759Z,15.30
2022-08-08T05:16:54.166Z,15.20
2022-08-08T05:20:14.354Z,15.20
2022-08-08T05:22:21.616Z,15.20
2022-08-08T05:24:52.316Z,15.30
2022-08-08T05:27:23.320Z,15.30
2022-08-08T05:29:54.922Z,15.30
2022-08-08T05:32:36.444Z,15.30
2022-08-08T05:35:09.523Z,15.30
2022-08-08T05:37:52.821Z,15.30
2022-08-08T05:40:31.581Z,15.30
2022-08-08T05:43:38.824Z,15.30
2022-08-08T05:46:03.523Z,15.40
2022-08-08T05:48:42.571Z,15.40
2022-08-08T05:51:16.125Z,15.40
2022-08-08T05:54:25.840Z,15.50
2022-08-08T05:56:41.891Z,15.50
2022-08-08T05:59:53.634Z,15.50
2022-08-08T06:02:33.728Z,15.50
2022-08-08T06:05:06.751Z,15.60
2022-08-08T06:08:02.936Z,15.60
2022-08-08T06:10:41.942Z,15.70
2022-08-08T06:13:18.317Z,15.80
2022-08-08T06:15:54.917Z,15.80
2022-08-08T06:18:43.724Z,15.90
2022-08-08T06:21:33.075Z,16.00
2022-08-08T06:24:22.762Z,16.10
2022-08-08T06:27:01.432Z,16.10
2022-08-08T06:29:59.920Z,16.20
2022-08-08T06:32:31.105Z,16.30
2022-08-08T06:36:04.398Z,16.40
2022-08-08T06:38:03.682Z,16.50
2022-08-08T06:40:39.132Z,16.60
2022-08-08T06:43:20.893Z,16.70
2022-08-08T06:46:01.557Z,16.90
2022-08-08T06:48:31.080Z,17.10
2022-08-08T06:51:08.355Z,17.30
2022-08-08T06:53:51.313Z,17.50
2022-08-08T06:56:28.692Z,17.80
2022-08-08T06:59:00.468Z,18.10
2022-08-08T07:02:27.632Z,18.50
2022-08-08T07:04:37.224Z,18.80
2022-08-08T07:07:13.747Z,19.20
2022-08-08T07:10:00.382Z,19.60
2022-08-08T07:12:43.059Z,20.00
2022-08-08T07:15:31.887Z,20.40
2022-08-08T07:18:35.981Z,20.80
2022-08-08T07:21:04.832Z,21.30
2022-08-08T07:24:01.388Z,21.80
2022-08-08T07:26:41.111Z,22.40
2022-08-08T07:29:55.445Z,23.00
2022-08-08T07:32:03.170Z,23.40
2022-08-08T07:34:32.619Z,23.90
2022-08-08T07:37:11.514Z,24.50
2022-08-08T07:39:45.311Z,25.10
2022-08-08T07:42:19.164Z,25.50
2022-08-08T07:44:54.451Z,26.00
2022-08-08T07:47:38.338Z,26.50
2022-08-08T07:50:09.874Z,26.70
2022-08-08T07:52:43.937Z,27.20
2022-08-08T07:55:22.177Z,27.40
2022-08-08T07:58:01.692Z,27.60
2022-08-08T08:00:39.604Z,28.10
2022-08-08T08:03:23.809Z,28.40
2022-08-08T08:05:59.809Z,28.50
2022-08-08T08:08:50.142Z,28.60
2022-08-08T08:11:23.297Z,28.80
2022-08-08T08:14:07.747Z,29.20
2022-08-08T08:16:43.485Z,29.20
2022-08-08T08:19:22.762Z,29.20
2022-08-08T08:21:57.491Z,29.60
2022-08-08T08:24:37.753Z,30.10
2022-08-08T08:27:09.432Z,30.50
2022-08-08T08:29:42.280Z,30.70
2022-08-08T08:32:14.090Z,31.20
2022-08-08T08:35:03.543Z,31.70
2022-08-08T08:37:32.968Z,32.00
2022-08-08T08:40:05.505Z,32.20
2022-08-08T08:42:39.377Z,32.60
2022-08-08T08:45:22.072Z,32.70
2022-08-08T08:47:58.607Z,33.10
2022-08-08T08:50:34.954Z,33.70
2022-08-08T08:53:27.623Z,34.00
2022-08-08T08:56:12.982Z,34.10
2022-08-08T08:58:49.960Z,34.40
2022-08-08T09:01:45.649Z,34.30
2022-08-08T09:04:31.845Z,34.50
2022-08-08T09:07:17.515Z,34.80
2022-08-08T09:09:57.359Z,34.80
2022-08-08T09:12:37.036Z,34.70
2022-08-08T09:15:07.733Z,34.90
2022-08-08T09:17:55.198Z,35.30
2022-08-08T09:21:57.375Z,35.60
2022-08-08T09:23:17.662Z,35.60
2022-08-08T09:26:02.491Z,35.80
2022-08-08T09:28:41.102Z,35.90
2022-08-08T09:31:18.093Z,36.30
2022-08-08T09:34:05.995Z,36.20
2022-08-08T09:36:51.648Z,36.20
2022-08-08T09:39:43.775Z,36.20
2022-08-08T09:42:20.858Z,36.00
2022-08-08T09:45:04.089Z,36.30
2022-08-08T09:48:03.046Z,36.40
2022-08-08T09:50:32.458Z,36.80
2022-08-08T09:53:13.925Z,36.60
2022-08-08T09:56:05.195Z,36.60
2022-08-08T09:58:41.567Z,36.60
2022-08-08T10:01:59.547Z,36.30
2022-08-08T10:04:14.511Z,36.10
2022-08-08T10:06:45.193Z,36.20
2022-08-08T10:09:15.405Z,36.00
2022-08-08T10:12:26.624Z,36.10
2022-08-08T10:14:40.993Z,36.20
2022-08-08T10:17:57.302Z,36.10
2022-08-08T10:20:03.883Z,36.10
2022-08-08T10:22:36.407Z,35.60
2022-08-08T10:25:07.243Z,35.80
2022-08-08T10:27:44.784Z,36.20
2022-08-08T10:30:16.278Z,36.30
2022-08-08T10:33:02.559Z,36.50
2022-08-08T10:36:06.674Z,36.00
2022-08-08T10:38:22.923Z,36.10
2022-08-08T10:40:53.728Z,36.30
2022-08-08T10:43:23.346Z,36.70
2022-08-08T10:45:56.356Z,37.00
2022-08-08T10:48:37.243Z,37.00
2022-08-08T10:51:21.926Z,37.20
2022-08-08T10:53:58.926Z,37.30
2022-08-08T10:56:34.651Z,37.30
2022-08-08T10:59:07.926Z,37.40
2022-08-08T11:01:39.192Z,37.50
2022-08-08T11:04:10.822Z,37.30
2022-08-08T11:06:41.748Z,37.30
2022-08-08T11:09:19.798Z,37.40
2022-08-08T11:12:05.355Z,37.60
2022-08-08T11:14:57.083Z,37.60
2022-08-08T11:17:59.684Z,37.70
2022-08-08T11:20:18.219Z,37.80
2022-08-08T11:22:53.084Z,37.60
2022-08-08T11:25:51.879Z,37.60
2022-08-08T11:28:18.642Z,37.40
2022-08-08T11:30:50.280Z,37.10
2022-08-08T11:33:51.174Z,36.90
2022-08-08T11:36:15.502Z,36.80
2022-08-08T11:38:54.627Z,36.50
2022-08-08T11:41:28.146Z,36.70
2022-08-08T11:44:01.955Z,36.70
2022-08-08T11:46:32.780Z,36.80
2022-08-08T11:49:04.287Z,36.90
2022-08-08T11:51:40.291Z,36.80
2022-08-08T11:54:31.452Z,36.70
2022-08-08T11:57:13.913Z,36.60
2022-08-08T11:59:58.451Z,36.50
2022-08-08T12:02:48.311Z,36.50
2022-08-08T12:05:22.843Z,36.50
2022-08-08T12:07:56.107Z,36.50
2022-08-08T12:10:26.579Z,36.60
2022-08-08T12:13:04.395Z,36.50
2022-08-08T12:15:42.048Z,36.30
2022-08-08T12:18:18.119Z,36.30
2022-08-08T12:20:49.640Z,36.00
2022-08-08T12:23:31.497Z,35.70
2022-08-08T12:26:17.384Z,35.50
2022-08-08T12:28:58.814Z,35.30
2022-08-08T12:31:39.134Z,35.20
2022-08-08T12:34:37.145Z,35.00
2022-08-08T12:37:08.304Z,34.80
2022-08-08T12:40:00.536Z,34.40
2022-08-08T12:42:27.322Z,34.30
2022-08-08T12:45:53.600Z,34.10
2022-08-08T12:48:10.476Z,33.70
2022-08-08T12:50:54.798Z,33.40
2022-08-08T12:53:35.166Z,33.50
2022-08-08T12:56:18.955Z,33.60
2022-08-08T12:58:54.365Z,33.70
2022-08-08T13:01:36.611Z,33.40
2022-08-08T13:04:19.248Z,33.20
2022-08-08T13:07:00.784Z,33.10
2022-08-08T13:09:57.582Z,33.10
2022-08-08T13:12:29.937Z,33.10
2022-08-08T13:15:00.945Z,32.90
2022-08-08T13:18:08.298Z,32.80
2022-08-08T13:20:22.028Z,32.70
2022-08-08T13:22:55.966Z,32.30
2022-08-08T13:25:36.752Z,32.20
2022-08-08T13:28:05.453Z,32.20
2022-08-08T13:30:33.863Z,32.10
2022-08-08T13:33:04.424Z,32.00
2022-08-08T13:35:38.508Z,32.00
2022-08-08T13:38:13.082Z,32.00
2022-08-08T13:40:44.841Z,31.90
2022-08-08T13:43:16.105Z,31.90
2022-08-08T13:45:47.264Z,31.80
2022-08-08T13:48:25.141Z,31.80
2022-08-08T13:51:24.638Z,31.80
2022-08-08T13:54:00.340Z,31.80
2022-08-08T13:56:31.659Z,31.70
2022-08-08T13:58:59.974Z,31.40
2022-08-08T14:01:33.101Z,31.30
2022-08-08T14:04:25.786Z,31.30
2022-08-08T14:07:02.267Z,31.30
2022-08-08T14:10:05.882Z,31.30
2022-08-08T14:12:26.857Z,31.40
2022-08-08T14:14:57.013Z,31.20
2022-08-08T14:17:58.125Z,31.10
2022-08-08T14:20:56.459Z,30.90
2022-08-08T14:23:10.094Z,30.90
2022-08-08T14:25:46.812Z,30.80
2022-08-08T14:28:23.515Z,30.80
2022-08-08T14:31:09.694Z,30.80
2022-08-08T14:33:39.091Z,30.90
2022-08-08T14:36:13.265Z,30.80
2022-08-08T14:38:52.782Z,30.80
2022-08-08T14:41:45.337Z,30.80
2022-08-08T14:44:22.112Z,30.70
2022-08-08T14:47:00.169Z,30.60
2022-08-08T14:49:37.586Z,30.50
2022-08-08T14:52:21.682Z,30.40
2022-08-08T14:54:50.920Z,30.30
2022-08-08T14:57:24.140Z,30.40
2022-08-08T15:00:09.557Z,30.30
2022-08-08T15:03:11.757Z,30.40
2022-08-08T15:05:43.266Z,30.40
2022-08-08T15:08:22.272Z,30.50
2022-08-08T15:11:04.291Z,30.50
2022-08-08T15:13:40.303Z,30.50
2022-08-08T15:16:21.649Z,30.50
2022-08-08T15:18:51.533Z,30.30
2022-08-08T15:21:20.786Z,30.20
2022-08-08T15:23:52.022Z,30.10
2022-08-08T15:26:20.845Z,30.00
2022-08-08T15:28:53.146Z,29.90
2022-08-08T15:31:55.914Z,29.80
2022-08-08T15:34:18.761Z,29.80
2022-08-08T15:36:59.498Z,29.80
2022-08-08T15:39:38.319Z,29.80
2022-08-08T15:42:13.195Z,29.80
2022-08-08T15:44:46.463Z,29.80
2022-08-08T15:47:19.029Z,29.90
2022-08-08T15:49:48.833Z,29.90
2022-08-08T15:52:24.822Z,29.90
2022-08-08T15:54:55.111Z,29.90
2022-08-08T15:57:23.725Z,29.90
2022-08-08T16:00:10.971Z,29.80
2022-08-08T16:02:50.370Z,29.80
2022-08-08T16:05:20.515Z,29.80
2022-08-08T16:07:52.834Z,29.90
2022-08-08T16:13:09.301Z,29.90
2022-08-08T16:13:28.553Z,29.90
2022-08-08T16:16:09.409Z,29.80
2022-08-08T16:18:41.325Z,29.80
2022-08-08T16:21:26.691Z,29.70
2022-08-08T16:23:56.257Z,29.60
2022-08-08T16:26:33.942Z,29.60
2022-08-08T16:29:10.040Z,29.60
2022-08-08T16:31:48.743Z,29.50
2022-08-08T16:34:19.878Z,29.40
2022-08-08T16:36:50.537Z,29.30
2022-08-08T16:39:48.867Z,29.20
2022-08-08T16:42:17.665Z,29.10
2022-08-08T16:44:58.923Z,29.10
2022-08-08T16:47:41.491Z,29.10
2022-08-08T16:50:14.274Z,29.00
2022-08-08T16:54:59.751Z,29.00
2022-08-08T16:55:53.141Z,28.90
2022-08-08T16:58:25.526Z,28.90
2022-08-08T17:00:56.734Z,28.90
2022-08-08T17:03:58.620Z,28.80
2022-08-08T17:06:35.311Z,28.80
2022-08-08T17:09:03.869Z,28.70
2022-08-08T17:11:39.325Z,28.60
2022-08-08T17:14:19.714Z,28.50
2022-08-08T17:16:58.322Z,28.50
2022-08-08T17:19:27.637Z,28.40
2022-08-08T17:21:57.552Z,28.40
2022-08-08T17:24:30.511Z,28.40
2022-08-08T17:26:59.809Z,28.40
2022-08-08T17:29:33.624Z,28.40
2022-08-08T17:32:03.290Z,28.40
2022-08-08T17:34:48.335Z,28.40
2022-08-08T17:37:21.085Z,28.40
2022-08-08T17:40:10.549Z,28.40
2022-08-08T17:42:38.737Z,28.40
2022-08-08T17:45:22.252Z,28.30
2022-08-08T17:47:54.125Z,28.30
2022-08-08T17:50:23.620Z,28.30
2022-08-08T17:52:52.680Z,28.20
2022-08-08T17:56:06.023Z,28.20
2022-08-08T17:58:11.752Z,28.10
2022-08-08T18:00:42.084Z,28.10
2022-08-08T18:03:16.027Z,28.10
2022-08-08T18:05:50.162Z,28.00
2022-08-08T18:08:40.922Z,28.00
2022-08-08T18:11:15.093Z,28.00
2022-08-08T18:13:46.052Z,28.00
2022-08-08T18:16:20.249Z,28.00
2022-08-08T18:18:54.079Z,27.90
2022-08-08T18:21:59.071Z,27.90
2022-08-08T18:24:19.523Z,27.90
2022-08-08T18:26:53.839Z,27.80
2022-08-08T18:29:30.210Z,27.80
2022-08-08T18:32:04.141Z,27.80
2022-08-08T18:34:34.228Z,27.70
2022-08-08T18:37:08.182Z,27.70
2022-08-08T18:39:41.335Z,27.60
2022-08-08T18:42:16.024Z,27.50
2022-08-08T18:44:56.064Z,27.50
2022-08-08T18:47:28.149Z,27.40
2022-08-08T18:50:00.277Z,27.30
2022-08-08T18:52:30.332Z,27.30
2022-08-08T18:55:10.567Z,27.20
2022-08-08T18:57:44.716Z,27.10
2022-08-08T19:00:16.838Z,27.00
2022-08-08T19:02:55.291Z,27.00
2022-08-08T19:05:32.117Z,26.90
2022-08-08T19:08:24.510Z,26.70
2022-08-08T19:10:57.689Z,26.60
2022-08-08T19:13:47.284Z,26.50
2022-08-08T19:16:19.190Z,26.40
2022-08-08T19:19:00.265Z,26.30
2022-08-08T19:21:33.620Z,26.20
2022-08-08T19:24:05.447Z,26.00
2022-08-08T19:26:35.421Z,26.00
2022-08-08T19:29:06.437Z,25.90
2022-08-08T19:31:35.231Z,25.80
2022-08-08T19:34:30.073Z,25.70
2022-08-08T19:36:58.491Z,25.70
2022-08-08T19:39:35.221Z,25.60
2022-08-08T19:42:06.875Z,25.50
2022-08-08T19:44:42.667Z,25.40
2022-08-08T19:47:12.322Z,25.30
2022-08-08T19:49:43.489Z,25.30
2022-08-08T19:52:34.732Z,25.20
2022-08-08T19:55:09.337Z,25.10
2022-08-08T19:57:38.465Z,25.00
2022-08-08T20:00:11.294Z,24.90
2022-08-08T20:02:57.902Z,24.80
2022-08-08T20:06:15.435Z,24.80
2022-08-08T20:08:29.240Z,24.70
2022-08-08T20:11:00.780Z,24.60
2022-08-08T20:14:34.871Z,24.60
2022-08-08T20:16:18.641Z,24.60
2022-08-08T20:18:52.874Z,24.40
2022-08-08T20:21:26.006Z,24.40
2022-08-08T20:23:57.666Z,24.30
2022-08-08T20:26:30.130Z,24.20
2022-08-08T20:29:02.181Z,24.20
2022-08-08T20:32:07.661Z,24.10
2022-08-08T20:34:29.720Z,24.00
2022-08-08T20:37:02.435Z,24.00
2022-08-08T20:39:34.005Z,23.90
2022-08-08T20:42:09.932Z,23.80
2022-08-08T20:44:38.551Z,23.70
2022-08-08T20:47:15.695Z,23.60
2022-08-08T20:49:55.933Z,23.60
2022-08-08T20:52:29.368Z,23.60
2022-08-08T20:54:58.728Z,23.50
2022-08-08T20:57:27.950Z,23.50
2022-08-08T20:59:56.624Z,23.40
2022-08-08T21:02:26.152Z,23.30
2022-08-08T21:04:57.360Z,23.30
2022-08-08T21:08:00.786Z,23.30
2022-08-08T21:10:21.325Z,23.20
2022-08-08T21:12:56.529Z,23.20
2022-08-08T21:16:03.929Z,23.10
2022-08-08T21:18:14.505Z,23.10
2022-08-08T21:20:43.498Z,23.00
2022-08-08T21:23:25.171Z,23.00
2022-08-08T21:26:09.072Z,22.90
2022-08-08T21:28:37.896Z,22.90
2022-08-08T21:31:22.705Z,22.80
2022-08-08T21:33:52.142Z,22.80
2022-08-08T21:36:28.565Z,22.70
2022-08-08T21:38:59.392Z,22.70
2022-08-08T21:41:42.889Z,22.60
2022-08-08T21:44:20.070Z,22.60
2022-08-08T21:48:03.731Z,22.50
2022-08-08T21:49:37.539Z,22.50
2022-08-08T21:54:23.208Z,22.50
2022-08-08T21:55:02.322Z,22.40
2022-08-08T21:57:42.138Z,22.40
2022-08-08T22:00:14.481Z,22.40
2022-08-08T22:02:44.306Z,22.30
2022-08-08T22:05:14.823Z,22.30
2022-08-08T22:07:48.059Z,22.20
2022-08-08T22:10:32.718Z,22.20
2022-08-08T22:13:17.094Z,22.10
2022-08-08T22:15:58.931Z,22.10
2022-08-08T22:18:30.896Z,22.10
2022-08-08T22:21:10.678Z,22.00
2022-08-08T22:23:50.323Z,22.00
2022-08-08T22:26:29.928Z,22.00
2022-08-08T22:29:13.667Z,21.90
2022-08-08T22:31:58.336Z,21.90
2022-08-08T22:34:31.217Z,21.80
2022-08-08T22:36:59.706Z,21.80
2022-08-08T22:39:39.483Z,21.80
2022-08-08T22:42:24.166Z,21.80
2022-08-08T22:44:56.470Z,21.70
2022-08-08T22:47:34.289Z,21.70
2022-08-08T22:50:25.618Z,21.70
2022-08-08T22:54:19.569Z,21.60
2022-08-08T22:55:57.640Z,21.60
2022-08-08T22:58:33.770Z,21.50
2022-08-08T23:01:30.582Z,21.50
2022-08-08T23:03:54.271Z,21.50
2022-08-08T23:06:24.286Z,21.40
2022-08-08T23:08:55.272Z,21.40
2022-08-08T23:12:17.340Z,21.40
2022-08-08T23:14:15.038Z,21.30
2022-08-08T23:16:48.223Z,21.30
2022-08-08T23:19:27.002Z,21.30
2022-08-08T23:21:55.303Z,21.20
2022-08-08T23:24:23.797Z,21.20
2022-08-08T23:26:55.522Z,21.10
2022-08-08T23:29:27.206Z,21.10
2022-08-08T23:31:59.806Z,21.10
2022-08-08T23:34:31.128Z,21.10
2022-08-08T23:37:00.691Z,21.10
2022-08-08T23:39:41.796Z,21.00
2022-08-08T23:42:17.858Z,21.00
2022-08-08T23:44:52.030Z,21.00
2022-08-08T23:49:06.341Z,20.90
2022-08-08T23:50:30.116Z,20.90
2022-08-08T23:53:03.459Z,20.80
2022-08-08T23:55:41.950Z,20.80
2022-08-08T23:58:37.213Z,20.70
